»·PEaware :: N1399 KRNO-KPVF

N1399 :: KRNO-KPVF

FLIGHT INFORMATION

Flight Status: Arrived
Operator: Privately registered:
United States
More flights under this callsign
Pilot: David C. (16084)
Aircraft: PIPER PA-31/31P NAVAJO CHIEFTAIN
(PA31)
More flights by this aircraft type
Origin: KRNO Reno/Tahoe Intl
United States
Destination: KPVF Placerville
United States
More flights between these airports :: More routes between these airports
Route: RENO9 SWR V338 HNW
File this flight plan on PilotEdge
Remarks: DOF / 171027 REG / N1399 OPR / PIP RMK / TCAS SIMBRIEF
Altitude:
(Current/Filed)
12,000ft
Speed:
(Current/Filed)
284kts
Departed: 27-Oct-17 09:52 AM
Arrived: 27-Oct-17 10:36 AM
Distance/Time
Traveled:
65nm/0:44
Distance/Time
To Go:
Arrived

Flight Plot

Page will automatically refresh every two minutes.

Flight plan parsing failed; only flown route is shown


Map Options




Map Legend


Flown Route
Filed Route
Departure Airport
Arrival Airport
Navaid (VOR, NDB)
Fix

Horizontal Profiles

Position Reports

Time Latitude Longitude Heading Altitude Ground
Speed
27-Oct-17 09:30 39.502024 -119.764549 270 4419ft 0kts
27-Oct-17 09:31 39.502024 -119.764549 270 4419ft 0kts
27-Oct-17 09:32 39.502024 -119.764549 270 4419ft 0kts
27-Oct-17 09:33 39.502024 -119.764549 270 4419ft 0kts
27-Oct-17 09:34 39.502024 -119.764549 270 4419ft 0kts
27-Oct-17 09:35 39.502024 -119.764549 270 4419ft 0kts
27-Oct-17 09:36 39.502024 -119.764549 270 4419ft 0kts
27-Oct-17 09:37 39.502024 -119.764549 270 4419ft 0kts
27-Oct-17 09:38 39.502024 -119.764549 270 4419ft 0kts
27-Oct-17 09:39 39.502024 -119.764549 270 4419ft 0kts
27-Oct-17 09:40 39.502024 -119.764549 270 4419ft 0kts
27-Oct-17 09:41 39.502024 -119.764549 270 4419ft 0kts
27-Oct-17 09:42 39.502024 -119.764549 270 4419ft 0kts
27-Oct-17 09:43 39.502024 -119.764549 270 4419ft 0kts
27-Oct-17 09:44 39.502024 -119.764549 270 4419ft 0kts
27-Oct-17 09:45 39.502024 -119.764549 270 4419ft 0kts
27-Oct-17 09:46 39.502024 -119.764549 270 4419ft 0kts
27-Oct-17 09:47 39.502024 -119.764549 270 4419ft 0kts
27-Oct-17 09:48 39.502024 -119.764549 270 4419ft 0kts
27-Oct-17 09:49 39.502024 -119.764549 270 4419ft 0kts
27-Oct-17 09:50 39.501111 -119.765365 258 4419ft 13kts
27-Oct-17 09:51 39.506280 -119.765779 358 4419ft 16kts
27-Oct-17 09:52 39.510891 -119.765150 357 4419ft 13kts
27-Oct-17 09:53 39.513720 -119.765465 290 4419ft 0kts
27-Oct-17 09:54 39.513720 -119.765465 290 4419ft 0kts
27-Oct-17 09:55 39.513720 -119.765465 290 4419ft 0kts
27-Oct-17 09:56 39.513348 -119.766706 185 4419ft 15kts
27-Oct-17 09:57 39.487719 -119.767164 180 5033ft 129kts
27-Oct-17 09:58 39.455585 -119.765679 176 6890ft 124kts
27-Oct-17 09:59 39.422802 -119.764323 176 8586ft 128kts
27-Oct-17 10:00 39.389417 -119.763365 176 10278ft 128kts
27-Oct-17 10:01 39.356545 -119.762881 176 11920ft 127kts
27-Oct-17 10:02 39.313602 -119.761957 176 12014ft 187kts
27-Oct-17 10:03 39.263542 -119.760504 176 12010ft 196kts
27-Oct-17 10:04 39.240001 -119.803985 274 12019ft 201kts
27-Oct-17 10:05 39.237141 -119.870154 261 12014ft 202kts
27-Oct-17 10:06 39.228636 -119.936036 259 12014ft 202kts
27-Oct-17 10:07 39.219364 -120.001193 259 12016ft 202kts
27-Oct-17 10:08 39.210063 -120.065693 259 12021ft 202kts
27-Oct-17 10:09 39.200687 -120.130311 259 12027ft 202kts
27-Oct-17 10:10 39.191373 -120.194259 259 12032ft 201kts
27-Oct-17 10:11 39.181781 -120.259415 256 12031ft 201kts
27-Oct-17 10:12 39.146875 -120.304940 218 12017ft 201kts
27-Oct-17 10:13 39.107516 -120.346726 218 12002ft 201kts
27-Oct-17 10:14 39.068233 -120.388337 218 11988ft 202kts
27-Oct-17 10:15 39.028698 -120.430090 218 11970ft 203kts
27-Oct-17 10:16 38.990072 -120.472649 227 11930ft 205kts
27-Oct-17 10:17 38.961208 -120.514093 228 11900ft 205kts
27-Oct-17 10:18 38.927200 -120.563024 228 11875ft 205kts
27-Oct-17 10:19 38.891777 -120.613811 229 10894ft 187kts
27-Oct-17 10:20 38.864180 -120.653706 227 9749ft 198kts
27-Oct-17 10:21 38.833989 -120.696894 227 8126ft 187kts
27-Oct-17 10:22 38.809347 -120.732096 226 6682ft 183kts
27-Oct-17 10:23 38.780778 -120.772855 226 6001ft 179kts
27-Oct-17 10:24 38.751684 -120.814288 226 5755ft 173kts
27-Oct-17 10:25 38.724688 -120.852772 226 5010ft 174kts
27-Oct-17 10:26 38.697171 -120.891653 228 4994ft 167kts
27-Oct-17 10:27 38.670090 -120.930346 228 4948ft 171kts
27-Oct-17 10:28 38.643756 -120.967800 228 3995ft 157kts
27-Oct-17 10:29 38.613895 -120.994914 197 3956ft 157kts
27-Oct-17 10:30 38.579199 -121.010298 220 3936ft 152kts
27-Oct-17 10:31 38.584611 -121.044035 346 3950ft 137kts
27-Oct-17 10:32 38.609873 -121.024206 33 3944ft 133kts
27-Oct-17 10:33 38.628068 -120.991929 61 3957ft 135kts
27-Oct-17 10:34 38.642657 -120.955906 61 3971ft 137kts
27-Oct-17 10:35 38.657422 -120.919352 62 3981ft 138kts
27-Oct-17 10:36 38.671449 -120.884565 62 3988ft 125kts
27-Oct-17 10:37 38.684677 -120.851723 62 3993ft 126kts
27-Oct-17 10:38 38.697204 -120.820586 63 3644ft 111kts
27-Oct-17 10:39 38.709108 -120.790959 63 3153ft 109kts
27-Oct-17 10:40 38.719414 -120.765279 64 2725ft 98kts
27-Oct-17 10:41 38.726830 -120.747626 317 2588ft 13kts
27-Oct-17 10:42 38.726872 -120.747679 314 2587ft 0kts
27-Oct-17 10:43 38.726490 -120.748796 240 2588ft 0kts
27-Oct-17 10:44 38.726490 -120.748796 240 2588ft 0kts
27-Oct-17 10:45 38.726490 -120.748796 240 2588ft 0kts

Navigation Log

Ident Type
Flight plan parsing failed, navigation log unavailable